2020-11-26 - 12:27:00

SR: 0709 - SS: 1525

RWY: 25


OBSERVATION: n/a

RVR Mean 1 min: (Runway Visual Range)
A: P2000 - B: P2000 - C: P2000
RVR Mean 10 min:
A: P2000 - B: P2000 - C: P2000
WARNING: n/a
W25: 220-260(240-02kt) 02kt-05kt
W07: 190-270(240-03kt) 01kt-05kt
OTHER: n/a

QFE: (tatsächlicher Luftdruck) 1014.9 hPa = 29.94 inHg
QNH:(Luftdruck auf Meereshöhe) 1020.8 hPa = 30.12 inHg
Temperatur: 8.2 °C
Dew point(Taupunkt): 7.8 °C

METAR:  00167 SADL31 EDDG 261220 METAR EDDG 261220Z 24004KT 3500 -RADZ FEW004 BKN005 08/08 Q1020 RERA TEMPO BKN003= 
METAR (aus weather.noaa.gov):
2020/11/26 12:20 EDDG 261220Z 24004KT 3500 -RADZ FEW004 BKN005 08/08 Q1020 RERA TEMPO BKN003

TAF (aus weather.noaa.gov):
2020/11/26 12:27 TAF EDDG 261100Z 2612/2712 VRB03KT 9999 BKN010 TEMPO 2612/2619 3500 -RADZ BR BKN004 BECMG 2618/2621 2000 -DZ BR BKN005 PROB30 TEMPO 2623/2709 0800 FG OVC001 BECMG 2709/2712 8000 BKN010
NOWCAST
085
FODL44 EDDG 261200
FODL44 EDDG 2011261205
# Nowcasting EDDG 26.11.2020 12:05 UTC
Parameter/Stunde13141516171819
Windrichtung230230240240230190210
Windgeschwindigkeit4332211
Böen--------------
Lufttemperatur 9 9 9 8 8 8 8
Taupunkt 8 8 8 8 8 7 7
Belagstemperatur 9 8 8 8 7 7 7
Wetter-vorherrschend-DZ-DZ-DZ-DZ-DZ-DZ-DZ
QNH1020102010201020102010201020
Wind in 5000 ft250/15260/15260/15260/15270/15270/15260/10
Wind in 3000 ft260/15260/15260/15260/15260/10260/10260/10
Wind in 2000 ft250/15250/15250/15260/10260/10250/05250/05
Wind in 1000 ft250/10250/10260/10270/10280/10260/05260/05